createdAt,value
2017-08-16T00:00:44.725Z,2.6
2017-08-16T00:01:47.556Z,2.7
2017-08-16T00:02:50.006Z,2.6
2017-08-16T00:03:52.456Z,2.7
2017-08-16T00:04:54.909Z,2.6
2017-08-16T00:05:57.356Z,2.7
2017-08-16T00:06:59.818Z,2.7
2017-08-16T00:08:02.629Z,2.7
2017-08-16T00:09:05.094Z,2.7
2017-08-16T00:10:07.896Z,2.7
2017-08-16T00:11:10.707Z,2.7
2017-08-16T00:12:13.155Z,2.7
2017-08-16T00:13:15.611Z,2.7
2017-08-16T00:14:18.072Z,2.6
2017-08-16T00:15:20.872Z,2.6
2017-08-16T00:16:23.309Z,2.6
2017-08-16T00:17:25.774Z,2.6
2017-08-16T00:18:28.209Z,2.6
2017-08-16T00:19:31.354Z,2.7
2017-08-16T00:20:33.820Z,2.6
2017-08-16T00:21:36.281Z,2.6
2017-08-16T00:22:38.740Z,2.6
2017-08-16T00:23:41.228Z,2.6
2017-08-16T00:24:43.705Z,2.7
2017-08-16T00:25:46.175Z,2.6
2017-08-16T00:26:48.632Z,2.7
2017-08-16T00:27:51.086Z,2.7
2017-08-16T00:28:53.544Z,2.7
2017-08-16T00:29:56.337Z,2.7
2017-08-16T00:30:58.780Z,2.6
2017-08-16T00:32:01.586Z,2.6
2017-08-16T00:33:04.031Z,2.6
2017-08-16T00:34:06.836Z,2.7
2017-08-16T00:35:09.642Z,2.7
2017-08-16T00:36:12.780Z,2.6
2017-08-16T00:37:15.567Z,2.7
2017-08-16T00:38:18.028Z,2.6
2017-08-16T00:39:20.490Z,2.7
2017-08-16T00:40:22.947Z,2.7
2017-08-16T00:41:26.074Z,2.6
2017-08-16T00:42:28.538Z,2.7
2017-08-16T00:43:30.999Z,2.7
2017-08-16T00:44:34.150Z,2.7
2017-08-16T00:45:36.620Z,2.6
2017-08-16T00:46:39.073Z,2.6
2017-08-16T00:47:42.201Z,2.7
2017-08-16T00:48:45.353Z,2.7
2017-08-16T00:49:47.798Z,2.7
2017-08-16T00:50:50.594Z,2.6
2017-08-16T00:51:53.066Z,2.7
2017-08-16T00:52:55.517Z,2.6
2017-08-16T00:53:58.318Z,2.7
2017-08-16T00:55:01.151Z,2.6
2017-08-16T00:56:04.584Z,2.7
2017-08-16T00:57:07.396Z,2.6
2017-08-16T00:58:09.857Z,2.7
2017-08-16T00:59:12.641Z,2.7
2017-08-16T01:00:15.112Z,2.7
2017-08-16T01:01:17.899Z,2.6
2017-08-16T01:02:20.725Z,2.6
2017-08-16T01:03:23.183Z,2.6
2017-08-16T01:04:25.625Z,2.6
2017-08-16T01:05:28.084Z,2.6
2017-08-16T01:06:30.546Z,2.7
2017-08-16T01:07:33.005Z,2.5
2017-08-16T01:08:35.805Z,2.6
2017-08-16T01:09:38.275Z,2.6
2017-08-16T01:10:41.408Z,2.6
2017-08-16T01:11:43.868Z,2.6
2017-08-16T01:12:46.349Z,2.6
2017-08-16T01:13:49.505Z,2.6
2017-08-16T01:14:52.288Z,2.6
2017-08-16T01:15:54.757Z,2.6
2017-08-16T01:16:57.198Z,2.6
2017-08-16T01:17:59.660Z,2.6
2017-08-16T01:19:02.789Z,2.6
2017-08-16T01:20:05.598Z,2.6
2017-08-16T01:21:08.059Z,2.6
2017-08-16T01:22:10.511Z,2.6
2017-08-16T01:23:12.959Z,2.6
2017-08-16T01:24:15.425Z,2.6
2017-08-16T01:25:18.215Z,2.6
2017-08-16T01:26:20.679Z,2.6
2017-08-16T01:27:23.140Z,2.6
2017-08-16T01:28:25.938Z,2.5
2017-08-16T01:29:28.391Z,2.6
2017-08-16T01:30:31.207Z,2.6
2017-08-16T01:31:33.657Z,2.6
2017-08-16T01:32:36.472Z,2.5
2017-08-16T01:33:38.921Z,2.6
2017-08-16T01:34:41.721Z,2.5
2017-08-16T01:35:44.179Z,2.6
2017-08-16T01:36:47.311Z,2.6
2017-08-16T01:37:50.100Z,2.6
2017-08-16T01:38:52.901Z,2.6
2017-08-16T01:39:55.363Z,2.6
2017-08-16T01:40:57.825Z,2.6
2017-08-16T01:42:00.260Z,2.6
2017-08-16T01:43:03.060Z,2.6
2017-08-16T01:44:06.201Z,2.5
2017-08-16T01:45:09.012Z,2.6
2017-08-16T01:46:11.808Z,2.6
2017-08-16T01:47:14.601Z,2.6
2017-08-16T01:48:17.056Z,2.6
2017-08-16T01:49:19.520Z,2.6
2017-08-16T01:50:21.970Z,2.6
2017-08-16T01:51:24.416Z,2.7
2017-08-16T01:52:27.902Z,2.7
2017-08-16T01:53:30.361Z,2.6
2017-08-16T01:54:33.171Z,2.6
2017-08-16T01:55:35.632Z,2.7
2017-08-16T01:56:38.077Z,2.7
2017-08-16T01:57:40.529Z,2.6
2017-08-16T01:58:43.333Z,2.7
2017-08-16T01:59:45.794Z,2.6
2017-08-16T02:00:48.248Z,2.7
2017-08-16T02:01:51.385Z,2.7
2017-08-16T02:02:54.185Z,2.7
2017-08-16T02:03:56.663Z,2.7
2017-08-16T02:04:59.116Z,2.7
2017-08-16T02:06:01.561Z,2.6
2017-08-16T02:07:04.701Z,2.6
2017-08-16T02:08:07.156Z,2.6
2017-08-16T02:09:11.002Z,2.6
2017-08-16T02:10:13.454Z,2.6
2017-08-16T02:11:15.911Z,2.6
2017-08-16T02:12:18.383Z,2.6
2017-08-16T02:13:20.844Z,2.6
2017-08-16T02:14:23.302Z,2.6
2017-08-16T02:15:25.766Z,2.6
2017-08-16T02:16:28.212Z,2.6
2017-08-16T02:17:31.057Z,2.6
2017-08-16T02:18:33.510Z,2.6
2017-08-16T02:19:36.319Z,2.7
2017-08-16T02:20:39.123Z,2.6
2017-08-16T02:21:42.274Z,2.6
2017-08-16T02:22:44.738Z,2.7
2017-08-16T02:23:47.196Z,2.6
2017-08-16T02:24:50.011Z,2.6
2017-08-16T02:25:52.469Z,2.6
2017-08-16T02:26:54.928Z,2.6
2017-08-16T02:27:57.384Z,2.6
2017-08-16T02:28:59.844Z,2.6
2017-08-16T02:30:03.695Z,2.6
2017-08-16T02:31:06.835Z,2.6
2017-08-16T02:32:09.325Z,2.6
2017-08-16T02:33:11.792Z,2.7
2017-08-16T02:34:14.947Z,2.6
2017-08-16T02:35:18.081Z,2.6
2017-08-16T02:36:20.898Z,2.7
2017-08-16T02:37:23.710Z,2.7
2017-08-16T02:38:26.157Z,2.7
2017-08-16T02:39:28.633Z,2.6
2017-08-16T02:40:31.091Z,2.7
2017-08-16T02:41:33.529Z,2.6
2017-08-16T02:42:37.030Z,2.7
2017-08-16T02:43:40.187Z,2.7
2017-08-16T02:44:42.982Z,2.7
2017-08-16T02:45:45.441Z,2.7
2017-08-16T02:46:47.894Z,2.6
2017-08-16T02:47:50.358Z,2.6
2017-08-16T02:48:53.185Z,2.7
2017-08-16T02:49:55.629Z,2.6
2017-08-16T02:50:58.100Z,2.7
2017-08-16T02:52:00.559Z,2.6
2017-08-16T02:53:03.356Z,2.6
2017-08-16T02:54:06.201Z,2.7
2017-08-16T02:55:08.653Z,2.7
2017-08-16T02:56:11.107Z,2.6
2017-08-16T02:57:13.608Z,2.7
2017-08-16T02:58:16.742Z,2.7
2017-08-16T02:59:19.535Z,2.6
2017-08-16T03:00:21.988Z,2.7
2017-08-16T03:01:24.777Z,2.8
2017-08-16T03:02:27.228Z,2.8
2017-08-16T03:03:29.705Z,2.8
2017-08-16T03:04:32.151Z,2.8
2017-08-16T03:05:34.606Z,2.8
2017-08-16T03:06:37.061Z,2.7
2017-08-16T03:07:39.521Z,2.7
2017-08-16T03:08:41.972Z,2.8
2017-08-16T03:09:44.429Z,2.8
2017-08-16T03:10:46.896Z,2.7
2017-08-16T03:11:49.697Z,2.7
2017-08-16T03:12:52.133Z,2.7
2017-08-16T03:13:54.586Z,2.7
2017-08-16T03:14:57.038Z,2.8
2017-08-16T03:15:59.593Z,2.7
2017-08-16T03:17:02.743Z,2.7
2017-08-16T03:18:05.192Z,2.7
2017-08-16T03:19:07.990Z,2.8
2017-08-16T03:20:10.813Z,2.7
2017-08-16T03:21:13.605Z,2.8
2017-08-16T03:22:16.056Z,2.8
2017-08-16T03:23:18.849Z,2.7
2017-08-16T03:24:21.984Z,2.7
2017-08-16T03:25:24.453Z,2.7
2017-08-16T03:26:27.242Z,2.7
2017-08-16T03:27:29.693Z,2.8
2017-08-16T03:28:32.473Z,2.8
2017-08-16T03:29:34.929Z,2.7
2017-08-16T03:30:37.401Z,2.8
2017-08-16T03:31:39.869Z,2.8
2017-08-16T03:32:42.656Z,2.8
2017-08-16T03:33:45.812Z,2.7
2017-08-16T03:34:48.618Z,2.7
2017-08-16T03:35:51.073Z,2.7
2017-08-16T03:36:53.869Z,2.8
2017-08-16T03:37:56.994Z,2.8
2017-08-16T03:38:59.825Z,2.8
2017-08-16T03:40:02.617Z,2.7
2017-08-16T03:41:05.424Z,2.8
2017-08-16T03:42:08.218Z,2.8
2017-08-16T03:43:11.014Z,2.8
2017-08-16T03:44:14.149Z,2.8
2017-08-16T03:45:16.625Z,2.8
2017-08-16T03:46:19.074Z,2.8
2017-08-16T03:47:21.535Z,2.8
2017-08-16T03:48:24.333Z,2.7
2017-08-16T03:49:26.788Z,2.7
2017-08-16T03:50:29.234Z,2.8
2017-08-16T03:51:32.031Z,2.8
2017-08-16T03:52:34.817Z,2.8
2017-08-16T03:53:38.306Z,2.7
2017-08-16T03:54:40.760Z,2.7
2017-08-16T03:55:43.545Z,2.7
2017-08-16T03:56:46.001Z,2.8
2017-08-16T03:57:48.450Z,2.7
2017-08-16T03:58:50.899Z,2.8
2017-08-16T03:59:53.360Z,2.7
2017-08-16T04:00:55.826Z,2.8
2017-08-16T04:01:58.272Z,2.8
2017-08-16T04:03:01.418Z,2.8
2017-08-16T04:04:04.208Z,2.7
2017-08-16T04:05:07.360Z,2.7
2017-08-16T04:06:09.817Z,2.8
2017-08-16T04:07:12.264Z,2.7
2017-08-16T04:08:14.709Z,2.7
2017-08-16T04:09:17.500Z,2.5
2017-08-16T04:10:19.979Z,2.8
2017-08-16T04:11:22.446Z,2.7
2017-08-16T04:12:25.233Z,2.7
2017-08-16T04:13:27.713Z,2.7
2017-08-16T04:14:30.166Z,2.7
2017-08-16T04:15:32.642Z,2.7
2017-08-16T04:16:35.093Z,2.7
2017-08-16T04:17:37.887Z,2.7
2017-08-16T04:18:40.364Z,2.7
2017-08-16T04:19:43.177Z,2.7
2017-08-16T04:20:46.304Z,2.7
2017-08-16T04:21:49.090Z,2.7
2017-08-16T04:22:51.535Z,2.7
2017-08-16T04:23:53.982Z,2.7
2017-08-16T04:24:56.438Z,2.7
2017-08-16T04:25:58.897Z,2.8
2017-08-16T04:27:01.686Z,2.8
2017-08-16T04:28:04.146Z,2.7
2017-08-16T04:29:06.611Z,2.7
2017-08-16T04:30:09.054Z,2.8
2017-08-16T04:31:11.866Z,2.8
2017-08-16T04:32:14.316Z,2.8
2017-08-16T04:33:17.116Z,2.8
2017-08-16T04:34:19.912Z,2.8
2017-08-16T04:35:22.371Z,2.8
2017-08-16T04:36:24.849Z,2.8
2017-08-16T04:37:27.662Z,2.8
2017-08-16T04:38:30.469Z,2.8
2017-08-16T04:39:32.931Z,2.8
2017-08-16T04:40:35.720Z,2.8
2017-08-16T04:41:38.535Z,2.8
2017-08-16T04:42:40.992Z,2.8
2017-08-16T04:43:44.106Z,2.8
2017-08-16T04:44:46.579Z,2.8
2017-08-16T04:45:49.037Z,2.8
2017-08-16T04:46:51.835Z,2.8
2017-08-16T04:47:54.634Z,2.7
2017-08-16T04:48:57.110Z,2.8
2017-08-16T04:49:59.898Z,2.8
2017-08-16T04:51:03.051Z,2.8
2017-08-16T04:52:05.501Z,2.7
2017-08-16T04:53:08.005Z,2.8
2017-08-16T04:54:11.150Z,2.8
2017-08-16T04:55:14.273Z,2.8
2017-08-16T04:56:17.080Z,2.8
2017-08-16T04:57:19.893Z,2.7
2017-08-16T04:58:22.695Z,2.8
2017-08-16T04:59:25.154Z,2.7
2017-08-16T05:00:27.644Z,2.8
2017-08-16T05:01:30.085Z,2.7
2017-08-16T05:02:32.554Z,2.9
2017-08-16T05:03:35.007Z,2.8
2017-08-16T05:04:37.457Z,2.8
2017-08-16T05:05:39.942Z,2.8
2017-08-16T05:06:42.391Z,2.9
2017-08-16T05:07:45.204Z,2.8
2017-08-16T05:08:47.998Z,2.9
2017-08-16T05:09:50.449Z,2.9
2017-08-16T05:10:53.264Z,2.8
2017-08-16T05:11:56.060Z,2.9
2017-08-16T05:12:58.856Z,2.9
2017-08-16T05:14:01.996Z,2.8
2017-08-16T05:15:05.134Z,2.8
2017-08-16T05:16:07.598Z,2.8
2017-08-16T05:17:10.065Z,2.9
2017-08-16T05:18:12.513Z,2.9
2017-08-16T05:19:14.971Z,2.8
2017-08-16T05:20:17.768Z,2.9
2017-08-16T05:21:20.565Z,2.8
2017-08-16T05:22:23.366Z,2.9
2017-08-16T05:23:26.526Z,2.9
2017-08-16T05:24:29.327Z,2.9
2017-08-16T05:25:31.780Z,2.9
2017-08-16T05:26:34.405Z,2.9
2017-08-16T05:27:36.868Z,2.8
2017-08-16T05:28:39.659Z,2.8
2017-08-16T05:29:42.124Z,2.9
2017-08-16T05:30:44.573Z,2.8
2017-08-16T05:31:47.031Z,2.8
2017-08-16T05:32:49.484Z,2.8
2017-08-16T05:33:51.944Z,2.8
2017-08-16T05:34:54.738Z,2.8
2017-08-16T05:35:57.197Z,2.8
2017-08-16T05:36:59.987Z,2.9
2017-08-16T05:38:02.786Z,2.9
2017-08-16T05:39:05.246Z,2.9
2017-08-16T05:40:08.743Z,2.9
2017-08-16T05:41:11.207Z,2.9
2017-08-16T05:42:13.677Z,2.9
2017-08-16T05:43:16.129Z,2.9
2017-08-16T05:44:18.586Z,2.9
2017-08-16T05:45:21.047Z,2.9
2017-08-16T05:46:23.497Z,2.9
2017-08-16T05:47:25.950Z,2.9
2017-08-16T05:48:28.421Z,2.9
2017-08-16T05:49:30.874Z,2.9
2017-08-16T05:50:33.326Z,2.8
2017-08-16T05:51:36.126Z,2.9
2017-08-16T05:52:38.575Z,2.9
2017-08-16T05:53:41.037Z,2.9
2017-08-16T05:54:43.832Z,2.8
2017-08-16T05:55:46.955Z,2.8
2017-08-16T05:56:49.756Z,2.8
2017-08-16T05:57:52.212Z,2.8
2017-08-16T05:58:55.004Z,2.8
2017-08-16T05:59:57.480Z,2.8
2017-08-16T06:01:00.276Z,2.8
2017-08-16T06:02:03.749Z,2.8
2017-08-16T06:03:07.234Z,2.9
2017-08-16T06:04:09.699Z,2.9
2017-08-16T06:05:12.158Z,2.9
2017-08-16T06:06:14.962Z,2.8
2017-08-16T06:07:17.797Z,2.8
2017-08-16T06:08:20.601Z,2.8
2017-08-16T06:09:23.394Z,2.9
2017-08-16T06:10:25.851Z,2.8
2017-08-16T06:11:28.309Z,2.8
2017-08-16T06:12:31.443Z,2.9
2017-08-16T06:13:33.905Z,2.9
2017-08-16T06:14:36.693Z,2.9
2017-08-16T06:15:39.187Z,2.9
2017-08-16T06:16:41.646Z,2.8
2017-08-16T06:17:44.786Z,2.8
2017-08-16T06:18:47.614Z,2.8
2017-08-16T06:19:50.753Z,2.9
2017-08-16T06:20:53.205Z,2.8
2017-08-16T06:21:55.994Z,2.9
2017-08-16T06:22:58.459Z,2.9
2017-08-16T06:24:00.919Z,2.9
2017-08-16T06:25:03.777Z,2.9
2017-08-16T06:26:06.257Z,2.9
2017-08-16T06:27:08.707Z,2.9
2017-08-16T06:28:11.166Z,2.9
2017-08-16T06:29:13.627Z,2.9
2017-08-16T06:30:16.087Z,2.8
2017-08-16T06:31:18.954Z,2.9
2017-08-16T06:32:21.751Z,2.9
2017-08-16T06:33:24.534Z,2.9
2017-08-16T06:34:26.986Z,2.9
2017-08-16T06:35:29.470Z,3
2017-08-16T06:36:32.268Z,2.9
2017-08-16T06:37:34.736Z,2.9
2017-08-16T06:38:37.536Z,2.9
2017-08-16T06:39:40.350Z,2.9
2017-08-16T06:40:43.136Z,2.9
2017-08-16T06:41:45.600Z,2.9
2017-08-16T06:42:48.072Z,2.9
2017-08-16T06:43:50.864Z,2.9
2017-08-16T06:44:53.313Z,2.9
2017-08-16T06:45:56.117Z,2.9
2017-08-16T06:46:59.248Z,2.8
2017-08-16T06:48:02.761Z,2.9
2017-08-16T06:49:06.573Z,2.8
2017-08-16T06:50:09.361Z,2.8
2017-08-16T06:51:11.838Z,2.8
2017-08-16T06:52:14.274Z,2.8
2017-08-16T06:53:16.740Z,2.8
2017-08-16T06:54:19.194Z,2.8
2017-08-16T06:55:21.655Z,2.8
2017-08-16T06:56:24.102Z,2.9
2017-08-16T06:57:26.623Z,2.8
2017-08-16T06:58:29.404Z,2.9
2017-08-16T06:59:31.873Z,2.9
2017-08-16T07:00:34.333Z,2.9
2017-08-16T07:01:37.480Z,2.8
2017-08-16T07:02:39.939Z,2.9
2017-08-16T07:03:42.393Z,2.9
2017-08-16T07:04:45.865Z,2.9
2017-08-16T07:05:48.679Z,2.9
2017-08-16T07:06:51.119Z,2.9
2017-08-16T07:07:53.940Z,2.8
2017-08-16T07:08:56.413Z,2.8
2017-08-16T07:09:58.868Z,2.9
2017-08-16T07:11:01.662Z,2.8
2017-08-16T07:12:05.135Z,2.8
2017-08-16T07:13:07.585Z,2.8
2017-08-16T07:14:10.726Z,2.8
2017-08-16T07:15:13.532Z,2.8
2017-08-16T07:16:15.985Z,2.8
2017-08-16T07:17:19.140Z,2.8
2017-08-16T07:18:22.654Z,2.9
2017-08-16T07:19:25.445Z,2.9
2017-08-16T07:20:28.280Z,2.9
2017-08-16T07:21:31.063Z,2.9
2017-08-16T07:22:33.518Z,2.8
2017-08-16T07:23:35.984Z,2.9
2017-08-16T07:24:38.784Z,2.9
2017-08-16T07:25:41.982Z,2.8
2017-08-16T07:26:44.440Z,2.9
2017-08-16T07:27:46.896Z,2.8
2017-08-16T07:28:49.378Z,2.9
2017-08-16T07:29:51.861Z,2.8
2017-08-16T07:30:54.302Z,2.9
2017-08-16T07:31:56.767Z,2.9
2017-08-16T07:32:59.221Z,2.9
2017-08-16T07:34:02.354Z,2.9
2017-08-16T07:35:05.166Z,2.8
2017-08-16T07:36:07.620Z,2.9
2017-08-16T07:37:10.078Z,3
2017-08-16T07:38:12.538Z,2.9
2017-08-16T07:39:15.336Z,2.9
2017-08-16T07:40:17.808Z,3
2017-08-16T07:41:20.612Z,2.9
2017-08-16T07:42:23.078Z,2.9
2017-08-16T07:43:25.886Z,2.9
2017-08-16T07:44:28.682Z,2.9
2017-08-16T07:45:31.482Z,2.9
2017-08-16T07:46:33.947Z,3
2017-08-16T07:47:36.398Z,3
2017-08-16T07:48:38.861Z,3
2017-08-16T07:49:42.006Z,2.9
2017-08-16T07:50:44.468Z,3
2017-08-16T07:51:47.614Z,3
2017-08-16T07:52:50.072Z,3
2017-08-16T07:53:52.529Z,3.1
2017-08-16T07:54:55.335Z,3.1
2017-08-16T07:55:58.131Z,3.1
2017-08-16T07:57:01.272Z,3.2
2017-08-16T07:58:03.729Z,3.2
2017-08-16T07:59:06.229Z,3.2
2017-08-16T08:00:08.696Z,3.3
2017-08-16T08:01:11.499Z,3.4
2017-08-16T08:02:13.953Z,3.4
2017-08-16T08:03:16.743Z,3.4
2017-08-16T08:04:19.202Z,3.4
2017-08-16T08:05:21.671Z,3.4
2017-08-16T08:06:24.129Z,3.4
2017-08-16T08:07:26.580Z,3.4
2017-08-16T08:08:29.390Z,3.5
2017-08-16T08:09:32.202Z,3.5
2017-08-16T08:10:34.665Z,3.5
2017-08-16T08:11:37.135Z,3.6
2017-08-16T08:12:39.592Z,3.7
2017-08-16T08:13:42.408Z,3.6
2017-08-16T08:14:45.556Z,3.6
2017-08-16T08:15:48.020Z,3.7
2017-08-16T08:16:50.483Z,3.6
2017-08-16T08:17:52.964Z,3.1
2017-08-16T08:18:55.427Z,3.2
2017-08-16T08:19:57.893Z,3.1
2017-08-16T08:21:00.370Z,3.2
2017-08-16T08:22:03.850Z,3.1
2017-08-16T08:23:06.313Z,3.2
2017-08-16T08:24:08.787Z,3.2
2017-08-16T08:25:11.246Z,3
2017-08-16T08:26:13.717Z,3.3
2017-08-16T08:27:16.176Z,3.4
2017-08-16T08:28:18.982Z,3.4
2017-08-16T08:29:21.793Z,3.4
2017-08-16T08:30:24.937Z,3.3
2017-08-16T08:31:27.404Z,3.3
2017-08-16T08:32:29.875Z,3.3
2017-08-16T08:33:32.338Z,3.4
2017-08-16T08:34:34.801Z,3.3
2017-08-16T08:35:37.940Z,3.3
2017-08-16T08:36:40.753Z,3.3
2017-08-16T08:37:43.244Z,3.3
2017-08-16T08:38:45.697Z,3.3
2017-08-16T08:39:48.512Z,3.3
2017-08-16T08:40:50.977Z,3.3
2017-08-16T08:41:53.426Z,3.3
2017-08-16T08:42:56.223Z,3.3
2017-08-16T08:43:58.698Z,3.4
2017-08-16T08:45:01.165Z,3.3
2017-08-16T08:46:04.318Z,3.3
2017-08-16T08:47:07.109Z,3.5
2017-08-16T08:48:09.916Z,3.3
2017-08-16T08:49:12.739Z,3.4
2017-08-16T08:50:15.199Z,3.4
2017-08-16T08:51:17.665Z,3.4
2017-08-16T08:52:20.127Z,3.4
2017-08-16T08:53:22.933Z,3.4
2017-08-16T08:54:25.748Z,3.4
2017-08-16T08:55:28.215Z,3.4
2017-08-16T08:56:31.015Z,3.5
2017-08-16T08:57:33.468Z,3.5
2017-08-16T08:58:35.941Z,3.5
2017-08-16T08:59:38.415Z,3.5
2017-08-16T09:00:40.897Z,3.5
2017-08-16T09:01:43.706Z,3.6
2017-08-16T09:02:46.187Z,3.5
2017-08-16T09:03:48.677Z,3.6
2017-08-16T09:04:51.134Z,3.6
2017-08-16T09:05:53.602Z,3.6
2017-08-16T09:06:56.397Z,3.7
2017-08-16T09:07:58.854Z,3.7
2017-08-16T09:09:01.342Z,3.8
2017-08-16T09:10:04.149Z,3.8
2017-08-16T09:11:07.304Z,3.8
2017-08-16T09:12:09.777Z,3.8
2017-08-16T09:13:12.240Z,3.7
2017-08-16T09:14:14.718Z,3.8
2017-08-16T09:15:17.189Z,3.8
2017-08-16T09:16:19.658Z,3.8
2017-08-16T09:17:22.482Z,3.8
2017-08-16T09:18:24.968Z,3.8
2017-08-16T09:19:27.775Z,3.9
2017-08-16T09:20:30.611Z,3.8
2017-08-16T09:21:33.079Z,3.9
2017-08-16T09:22:35.545Z,3.8
2017-08-16T09:23:38.351Z,3.7
2017-08-16T09:24:40.814Z,3.9
2017-08-16T09:25:43.955Z,3.8
2017-08-16T09:26:46.447Z,3.9
2017-08-16T09:27:49.256Z,3.9
2017-08-16T09:28:52.057Z,3.9
2017-08-16T09:29:54.562Z,3.9
2017-08-16T09:30:57.366Z,4
2017-08-16T09:31:59.824Z,3.9
2017-08-16T09:33:02.714Z,4
2017-08-16T09:34:05.538Z,3.9
2017-08-16T09:35:08.364Z,4
2017-08-16T09:36:10.825Z,4
2017-08-16T09:37:13.297Z,4
2017-08-16T09:38:16.090Z,4
2017-08-16T09:39:18.925Z,4
2017-08-16T09:40:21.383Z,3.9
2017-08-16T09:41:24.193Z,3.8
2017-08-16T09:42:26.661Z,3.8
2017-08-16T09:43:29.130Z,3.9
2017-08-16T09:44:31.595Z,3.9
2017-08-16T09:45:34.407Z,3.9
2017-08-16T09:46:36.873Z,3.9
2017-08-16T09:47:39.680Z,3.9
2017-08-16T09:48:42.481Z,3.9
2017-08-16T09:49:45.299Z,3.8
2017-08-16T09:50:48.451Z,3.9
2017-08-16T09:51:50.938Z,3.8
2017-08-16T09:52:53.393Z,3.8
2017-08-16T09:53:56.201Z,3.7
2017-08-16T09:54:58.653Z,3.8
2017-08-16T09:56:01.450Z,3.8
2017-08-16T09:57:03.914Z,3.8
2017-08-16T09:58:06.388Z,3.7
2017-08-16T09:59:09.190Z,3.8
2017-08-16T10:00:11.663Z,3.9
2017-08-16T10:01:14.121Z,3.8
2017-08-16T10:02:16.608Z,3.8
2017-08-16T10:03:19.757Z,3.8
2017-08-16T10:04:22.216Z,3.8
2017-08-16T10:05:24.689Z,3.9
2017-08-16T10:06:27.159Z,3.8
2017-08-16T10:07:29.631Z,3.8
2017-08-16T10:08:32.104Z,3.6
2017-08-16T10:09:35.276Z,3.8
2017-08-16T10:10:37.736Z,3.8
2017-08-16T10:11:40.562Z,3.7
2017-08-16T10:12:43.346Z,3.8
2017-08-16T10:13:46.142Z,3.8
2017-08-16T10:14:48.955Z,3.8
2017-08-16T10:15:51.423Z,3.7
2017-08-16T10:16:53.880Z,3.8
2017-08-16T10:17:57.368Z,3.8
2017-08-16T10:18:59.820Z,3.7
2017-08-16T10:20:02.627Z,3.7
2017-08-16T10:21:05.775Z,3.6
2017-08-16T10:22:08.291Z,3.7
2017-08-16T10:23:10.781Z,3.7
2017-08-16T10:24:13.246Z,3.7
2017-08-16T10:25:15.694Z,3.6
2017-08-16T10:26:18.538Z,3.6
2017-08-16T10:27:21.332Z,3.6
2017-08-16T10:28:24.138Z,3.6
2017-08-16T10:29:26.608Z,3.6
2017-08-16T10:30:29.422Z,3.6
2017-08-16T10:31:32.555Z,3.5
2017-08-16T10:32:35.364Z,3.6
2017-08-16T10:33:37.831Z,3.7
2017-08-16T10:34:40.639Z,3.6
2017-08-16T10:35:43.438Z,3.7
2017-08-16T10:36:46.587Z,3.6
2017-08-16T10:37:49.388Z,3.7
2017-08-16T10:38:51.842Z,3.6
2017-08-16T10:39:54.304Z,3.7
2017-08-16T10:40:56.767Z,3.7
2017-08-16T10:41:59.226Z,3.6
2017-08-16T10:43:01.702Z,3.7
2017-08-16T10:44:04.154Z,3.7
2017-08-16T10:45:06.617Z,3.6
2017-08-16T10:46:09.090Z,3.6
2017-08-16T10:47:11.553Z,3.6
2017-08-16T10:48:14.017Z,3.6
2017-08-16T10:49:16.482Z,3.5
2017-08-16T10:50:18.932Z,3.6
2017-08-16T10:51:21.401Z,3.5
2017-08-16T10:52:23.860Z,3.5
2017-08-16T10:53:26.318Z,3.7
2017-08-16T10:54:29.125Z,3.5
2017-08-16T10:55:31.581Z,3.6
2017-08-16T10:56:34.049Z,3.6
2017-08-16T10:57:36.518Z,3.6
2017-08-16T10:58:38.970Z,3.6
2017-08-16T10:59:41.784Z,3.6
2017-08-16T11:00:44.267Z,3.6
2017-08-16T11:01:46.733Z,3.6
2017-08-16T11:02:49.869Z,3.5
2017-08-16T11:03:52.672Z,3.5
2017-08-16T11:04:55.123Z,3.6
2017-08-16T11:05:57.589Z,3.6
2017-08-16T11:07:00.423Z,3.5
2017-08-16T11:08:03.601Z,3.5
2017-08-16T11:09:06.408Z,3.5
2017-08-16T11:10:08.868Z,3.5
2017-08-16T11:11:11.360Z,3.6
2017-08-16T11:12:13.839Z,3.6
2017-08-16T11:13:16.305Z,3.6
2017-08-16T11:14:18.769Z,3.7
2017-08-16T11:15:21.212Z,3.6
2017-08-16T11:16:23.678Z,3.6
2017-08-16T11:17:26.171Z,3.6
2017-08-16T11:18:28.959Z,3.6
2017-08-16T11:19:31.441Z,3.6
2017-08-16T11:20:34.579Z,3.7
2017-08-16T11:21:37.043Z,3.7
2017-08-16T11:22:39.845Z,3.7
2017-08-16T11:23:42.676Z,3.7
2017-08-16T11:24:45.155Z,3.7
2017-08-16T11:25:47.625Z,3.8
2017-08-16T11:26:50.420Z,3.7
2017-08-16T11:27:52.897Z,3.8
2017-08-16T11:28:55.369Z,3.7
2017-08-16T11:29:57.832Z,3.7
2017-08-16T11:31:00.969Z,3.8
2017-08-16T11:32:03.776Z,3.9
2017-08-16T11:33:06.571Z,3.9
2017-08-16T11:34:09.049Z,3.9
2017-08-16T11:35:11.524Z,3.8
2017-08-16T11:36:14.341Z,3.9
2017-08-16T11:37:16.807Z,3.9
2017-08-16T11:38:19.282Z,3.8
2017-08-16T11:39:21.757Z,4
2017-08-16T11:40:24.216Z,3.9
2017-08-16T11:41:27.364Z,4
2017-08-16T11:42:29.824Z,4.1
2017-08-16T11:43:32.619Z,4.1
2017-08-16T11:44:35.774Z,4.1
2017-08-16T11:45:38.235Z,4.2
2017-08-16T11:46:40.707Z,4.2
2017-08-16T11:47:43.524Z,4.2
2017-08-16T11:48:46.673Z,4.3
2017-08-16T11:49:50.143Z,4.3
2017-08-16T11:50:52.629Z,4.3
2017-08-16T11:51:55.452Z,4.5
2017-08-16T11:52:58.270Z,4.5
2017-08-16T11:54:01.464Z,4.5
2017-08-16T11:55:03.933Z,4.5
2017-08-16T11:56:06.418Z,4.5
2017-08-16T11:57:08.886Z,4.4
2017-08-16T11:58:11.680Z,4.5
2017-08-16T11:59:14.485Z,4.5
2017-08-16T12:00:17.314Z,4.4
2017-08-16T12:01:20.465Z,4.4
2017-08-16T12:02:22.927Z,4.4
2017-08-16T12:03:25.762Z,4.3
2017-08-16T12:04:28.236Z,4.4
2017-08-16T12:05:30.709Z,4.4
2017-08-16T12:06:33.172Z,4.4
2017-08-16T12:07:35.642Z,4.3
2017-08-16T12:08:38.101Z,4.4
2017-08-16T12:09:40.608Z,4.5
2017-08-16T12:10:43.418Z,4.4
2017-08-16T12:11:46.230Z,4.5
2017-08-16T12:12:49.391Z,4.5
2017-08-16T12:13:52.220Z,4.4
2017-08-16T12:14:54.671Z,4.5
2017-08-16T12:15:57.161Z,4.4
2017-08-16T12:17:00.331Z,4.4
2017-08-16T12:18:03.133Z,4.4
2017-08-16T12:19:05.626Z,4.4
2017-08-16T12:20:08.097Z,4.4
2017-08-16T12:21:10.563Z,4.4
2017-08-16T12:22:13.375Z,4.4
2017-08-16T12:23:16.190Z,4.4
2017-08-16T12:24:19.004Z,4.5
2017-08-16T12:25:21.482Z,4.6
2017-08-16T12:26:23.937Z,4.5
2017-08-16T12:27:26.411Z,4.4
2017-08-16T12:28:28.886Z,4.5
2017-08-16T12:29:31.389Z,4.6
2017-08-16T12:30:34.211Z,4.6
2017-08-16T12:31:36.679Z,4.6
2017-08-16T12:32:39.189Z,4.6
2017-08-16T12:33:42.014Z,4.7
2017-08-16T12:34:44.501Z,4.7
2017-08-16T12:35:47.307Z,4.6
2017-08-16T12:36:50.110Z,4.7
2017-08-16T12:37:52.607Z,4.7
2017-08-16T12:38:55.092Z,4.6
2017-08-16T12:39:57.896Z,4.7
2017-08-16T12:41:01.053Z,4.7
2017-08-16T12:42:04.199Z,4.6
2017-08-16T12:43:06.676Z,4.8
2017-08-16T12:44:09.139Z,4.8
2017-08-16T12:45:11.605Z,4.8
2017-08-16T12:46:14.393Z,4.8
2017-08-16T12:47:17.215Z,4.8
2017-08-16T12:48:19.684Z,4.9
2017-08-16T12:49:22.158Z,4.8
2017-08-16T12:50:24.655Z,4.7
2017-08-16T12:51:27.115Z,4.8
2017-08-16T12:52:29.586Z,4.8
2017-08-16T12:53:32.430Z,4.6
2017-08-16T12:54:34.934Z,4.7
2017-08-16T12:55:37.432Z,4.8
2017-08-16T12:56:40.591Z,4.8
2017-08-16T12:57:43.391Z,4.8
2017-08-16T12:58:45.864Z,4.8
2017-08-16T12:59:48.334Z,4.8
2017-08-16T13:00:51.143Z,4.7
2017-08-16T13:01:53.952Z,4.8
2017-08-16T13:02:57.126Z,4.8
2017-08-16T13:03:59.593Z,4.7
2017-08-16T13:05:03.117Z,4.9
2017-08-16T13:06:06.268Z,4.9
2017-08-16T13:07:08.753Z,4.9
2017-08-16T13:08:11.577Z,5
2017-08-16T13:09:14.052Z,4.9
2017-08-16T13:10:16.865Z,4.9
2017-08-16T13:11:19.364Z,4.8
2017-08-16T13:12:21.828Z,4.9
2017-08-16T13:13:24.307Z,4.7
2017-08-16T13:14:27.124Z,4.8
2017-08-16T13:15:30.288Z,4.8
2017-08-16T13:16:32.758Z,4.8
2017-08-16T13:17:35.230Z,4.8
2017-08-16T13:18:38.048Z,4.8
2017-08-16T13:19:40.526Z,4.6
2017-08-16T13:20:43.681Z,4.6
2017-08-16T13:21:46.153Z,4.7
2017-08-16T13:22:48.964Z,4.8
2017-08-16T13:23:51.793Z,4.8
2017-08-16T13:24:54.249Z,4.8
2017-08-16T13:25:56.727Z,4.8
2017-08-16T13:26:59.528Z,4.7
2017-08-16T13:28:02.332Z,4.8
2017-08-16T13:29:04.858Z,4.8
2017-08-16T13:30:07.679Z,4.7
2017-08-16T13:31:10.151Z,4.8
2017-08-16T13:32:12.990Z,4.9
2017-08-16T13:33:15.815Z,4.9
2017-08-16T13:34:18.642Z,5
2017-08-16T13:35:21.820Z,5.1
2017-08-16T13:36:24.295Z,5.1
2017-08-16T13:37:27.116Z,5.2
2017-08-16T13:38:29.571Z,5.2
2017-08-16T13:39:32.413Z,5.1
2017-08-16T13:40:34.879Z,5.2
2017-08-16T13:41:37.359Z,5.2
2017-08-16T13:42:39.836Z,5.3
2017-08-16T13:43:42.303Z,5.2
2017-08-16T13:44:45.114Z,5.4
2017-08-16T13:45:47.603Z,5.3
2017-08-16T13:46:50.424Z,5.4
2017-08-16T13:47:52.905Z,5.3
2017-08-16T13:48:55.709Z,5.4
2017-08-16T13:49:58.182Z,5.4
2017-08-16T13:51:00.660Z,5.4
2017-08-16T13:52:04.162Z,5.5
2017-08-16T13:53:07.003Z,5.3
2017-08-16T13:54:10.502Z,5.3
2017-08-16T13:55:12.973Z,5.3
2017-08-16T13:56:15.466Z,5.3
2017-08-16T13:57:18.283Z,5.3
2017-08-16T13:58:21.092Z,5.2
2017-08-16T13:59:23.556Z,5.3
2017-08-16T14:00:26.383Z,5.1
2017-08-16T14:01:29.218Z,5.2
2017-08-16T14:02:31.674Z,5.3
2017-08-16T14:03:34.500Z,5.1
2017-08-16T14:04:36.990Z,5.1
2017-08-16T14:05:39.455Z,5.2
2017-08-16T14:06:41.929Z,5.1
2017-08-16T14:07:44.391Z,5.2
2017-08-16T14:08:47.217Z,5.2
2017-08-16T14:09:49.709Z,5
2017-08-16T14:10:52.869Z,5.1
2017-08-16T14:11:55.333Z,5.1
2017-08-16T14:12:57.810Z,5.1
2017-08-16T14:14:00.970Z,5.2
2017-08-16T14:15:03.450Z,5.1
2017-08-16T14:16:06.395Z,5.1
2017-08-16T14:17:09.204Z,5.2
2017-08-16T14:18:12.010Z,5.1
2017-08-16T14:19:14.487Z,5.1
2017-08-16T14:20:17.637Z,5.1
2017-08-16T14:21:20.115Z,5.1
2017-08-16T14:22:22.585Z,5.1
2017-08-16T14:23:25.755Z,5
2017-08-16T14:24:28.569Z,5.2